createdAt,value
2018-08-28T04:10:04.047Z,13.30
2018-08-28T04:12:34.137Z,13.30
2018-08-28T04:15:02.289Z,13.30
2018-08-28T04:17:30.388Z,13.40
2018-08-28T04:19:58.469Z,13.30
2018-08-28T04:22:30.558Z,13.20
2018-08-28T04:24:58.593Z,13.20
2018-08-28T04:27:26.745Z,13.20
2018-08-28T04:29:54.884Z,13.10
2018-08-28T04:32:22.985Z,13.20
2018-08-28T04:34:51.176Z,13.30
2018-08-28T04:37:19.669Z,13.30
2018-08-28T04:39:47.765Z,13.30
2018-08-28T04:42:15.881Z,13.20
2018-08-28T04:44:43.980Z,13.20
2018-08-28T04:47:12.247Z,13.30
2018-08-28T04:49:40.328Z,13.20
2018-08-28T04:52:08.479Z,13.30
2018-08-28T04:54:36.869Z,13.40
2018-08-28T04:57:05.033Z,13.50
2018-08-28T04:59:33.112Z,13.60
2018-08-28T05:02:01.196Z,13.60
2018-08-28T05:04:29.300Z,13.70
2018-08-28T05:06:57.378Z,13.70
2018-08-28T05:09:25.471Z,13.80
2018-08-28T05:11:54.609Z,13.90
2018-08-28T05:14:22.578Z,13.90
2018-08-28T05:16:50.713Z,14.00
2018-08-28T05:19:18.892Z,14.00
2018-08-28T05:21:46.919Z,14.10
2018-08-28T05:24:15.016Z,14.20
2018-08-28T05:26:43.445Z,14.20
2018-08-28T05:29:11.571Z,14.30
2018-08-28T05:31:39.828Z,14.40
2018-08-28T05:34:07.983Z,14.50
2018-08-28T05:36:36.100Z,14.60
2018-08-28T05:39:05.649Z,14.70
2018-08-28T05:41:33.772Z,14.80
2018-08-28T05:44:01.918Z,15.20
2018-08-28T05:46:30.052Z,15.80
2018-08-28T05:48:58.160Z,16.10
2018-08-28T05:51:26.262Z,16.50
2018-08-28T05:53:54.384Z,16.60
2018-08-28T05:56:22.562Z,16.60
2018-08-28T05:58:51.369Z,16.60
2018-08-28T06:01:19.527Z,16.60
2018-08-28T06:03:47.605Z,16.80
2018-08-28T06:06:15.738Z,16.90
2018-08-28T06:08:43.819Z,17.40
2018-08-28T06:11:11.935Z,17.60
2018-08-28T06:13:40.399Z,17.60
2018-08-28T06:16:08.521Z,17.80
2018-08-28T06:18:36.622Z,17.80
2018-08-28T06:21:04.757Z,17.90
2018-08-28T06:23:32.872Z,18.10
2018-08-28T06:26:00.961Z,18.20
2018-08-28T06:28:29.125Z,17.90
2018-08-28T06:30:57.310Z,18.10
2018-08-28T06:33:25.507Z,18.40
2018-08-28T06:35:54.259Z,18.50
2018-08-28T06:38:22.452Z,18.50
2018-08-28T06:40:50.576Z,18.60
2018-08-28T06:43:18.653Z,18.70
2018-08-28T07:10:09.606Z,21.80
2018-08-28T07:12:37.724Z,22.10
2018-08-28T07:15:05.886Z,21.80
2018-08-28T07:17:34.024Z,21.70
2018-08-28T07:20:08.167Z,20.60
2018-08-28T07:22:36.284Z,20.90
2018-08-28T07:25:04.571Z,21.30
2018-08-28T07:27:32.628Z,21.50
2018-08-28T07:30:00.725Z,22.30
2018-08-28T07:32:28.816Z,22.20
2018-08-28T07:34:56.958Z,22.50
2018-08-28T07:37:24.588Z,23.30
2018-08-28T07:39:52.647Z,23.30
2018-08-28T07:42:20.768Z,23.10
2018-08-28T07:44:48.824Z,23.80
2018-08-28T07:47:17.013Z,23.90
2018-08-28T07:49:45.120Z,24.00
2018-08-28T07:52:13.196Z,24.00
2018-08-28T07:54:41.672Z,23.80
2018-08-28T07:57:09.787Z,24.50
2018-08-28T07:59:37.870Z,24.60
2018-08-28T08:02:06.109Z,25.00
2018-08-28T08:04:34.609Z,25.20
2018-08-28T08:07:02.688Z,25.30
2018-08-28T08:09:30.789Z,25.00
2018-08-28T08:11:58.906Z,25.70
2018-08-28T08:14:27.135Z,25.50
2018-08-28T08:16:55.229Z,25.20
2018-08-28T08:19:23.312Z,25.20
2018-08-28T08:21:51.385Z,25.40
2018-08-28T08:24:19.525Z,25.70
2018-08-28T08:26:47.624Z,25.20
2018-08-28T08:29:15.704Z,25.80
2018-08-28T08:31:43.868Z,26.10
2018-08-28T08:34:11.974Z,25.50
2018-08-28T08:36:41.308Z,25.10
2018-08-28T08:39:10.254Z,25.30
2018-08-28T08:41:38.931Z,24.80
2018-08-28T08:44:07.213Z,23.80
2018-08-28T08:46:35.286Z,23.70
2018-08-28T08:49:03.376Z,24.60
2018-08-28T08:51:31.440Z,25.20
2018-08-28T08:53:59.539Z,25.70
2018-08-28T08:56:27.625Z,25.30
2018-08-28T08:58:55.817Z,25.50
2018-08-28T09:01:23.883Z,25.00
2018-08-28T09:03:52.010Z,24.70
2018-08-28T09:06:20.130Z,25.50
2018-08-28T09:08:48.216Z,26.00
2018-08-28T09:11:16.297Z,26.00
2018-08-28T09:13:44.385Z,26.40
2018-08-28T09:16:12.463Z,26.60
2018-08-28T09:18:40.551Z,26.10
2018-08-28T09:21:08.633Z,25.70
2018-08-28T09:23:36.708Z,26.50
2018-08-28T09:26:04.957Z,26.90
2018-08-28T09:28:33.036Z,26.60
2018-08-28T09:31:01.139Z,26.70
2018-08-28T09:33:29.354Z,26.50
2018-08-28T09:35:57.426Z,26.60
2018-08-28T09:38:25.144Z,27.40
2018-08-28T09:40:53.243Z,27.20
2018-08-28T09:43:21.291Z,26.30
2018-08-28T09:45:49.365Z,26.80
2018-08-28T09:48:17.606Z,26.00
2018-08-28T09:50:45.575Z,26.80
2018-08-28T09:53:13.613Z,26.60
2018-08-28T09:55:41.681Z,26.80
2018-08-28T09:58:09.760Z,27.10
2018-08-28T10:00:43.300Z,26.30
2018-08-28T10:03:11.422Z,26.30
2018-08-28T10:05:39.478Z,25.90
2018-08-28T10:08:07.566Z,26.80
2018-08-28T10:10:35.646Z,26.80
2018-08-28T10:13:03.716Z,26.30
2018-08-28T10:15:31.813Z,25.30
2018-08-28T10:17:59.889Z,25.30
2018-08-28T10:20:27.977Z,25.60
2018-08-28T10:22:56.147Z,25.70
2018-08-28T10:25:24.275Z,26.00
2018-08-28T10:27:52.336Z,26.50
2018-08-28T10:30:20.453Z,25.60
2018-08-28T10:32:48.512Z,24.50
2018-08-28T10:35:16.704Z,24.90
2018-08-28T10:37:44.784Z,26.00
2018-08-28T10:40:13.532Z,26.50
2018-08-28T10:42:41.633Z,25.50
2018-08-28T10:45:09.736Z,25.30
2018-08-28T10:47:37.807Z,24.30
2018-08-28T10:50:05.915Z,24.10
2018-08-28T10:52:34.091Z,24.90
2018-08-28T10:55:02.145Z,24.90
2018-08-28T10:57:30.233Z,24.80
2018-08-28T10:59:58.337Z,24.60
2018-08-28T11:02:26.416Z,24.50
2018-08-28T11:04:54.500Z,24.30
2018-08-28T11:07:22.580Z,25.00
2018-08-28T11:09:50.698Z,25.90
2018-08-28T11:12:18.781Z,24.30
2018-08-28T11:14:46.944Z,25.10
2018-08-28T11:17:14.996Z,26.00
2018-08-28T11:19:43.190Z,26.50
2018-08-28T11:22:11.245Z,27.20
2018-08-28T11:24:39.312Z,27.20
2018-08-28T11:27:07.381Z,26.90
2018-08-28T11:29:35.457Z,26.60
2018-08-28T11:32:03.572Z,27.20
2018-08-28T11:34:31.654Z,27.50
2018-08-28T11:36:59.743Z,26.90
2018-08-28T11:39:27.813Z,27.40
2018-08-28T11:41:55.448Z,27.20
2018-08-28T11:44:23.528Z,27.70
2018-08-28T11:46:51.628Z,27.30
2018-08-28T11:49:19.703Z,26.80
2018-08-28T11:51:47.823Z,25.80
2018-08-28T11:54:15.996Z,25.50
2018-08-28T11:56:44.073Z,25.40
2018-08-28T11:59:12.156Z,25.70
2018-08-28T12:01:40.313Z,26.10
2018-08-28T12:04:08.385Z,26.10
2018-08-28T12:06:36.468Z,25.60
2018-08-28T12:09:05.909Z,25.20
2018-08-28T12:11:33.979Z,25.50
2018-08-28T12:14:02.089Z,25.60
2018-08-28T12:16:30.178Z,25.10
2018-08-28T12:18:58.250Z,24.20
2018-08-28T12:21:26.344Z,24.30
2018-08-28T12:23:54.425Z,24.20
2018-08-28T12:26:22.501Z,24.50
2018-08-28T12:28:50.578Z,24.80
2018-08-28T12:31:18.688Z,25.10
2018-08-28T12:33:46.889Z,25.50
2018-08-28T12:36:14.508Z,26.20
2018-08-28T12:38:42.600Z,26.30
2018-08-28T12:41:10.694Z,26.50
2018-08-28T12:43:38.793Z,26.50
2018-08-28T12:46:06.967Z,26.50
2018-08-28T12:48:35.853Z,25.70
2018-08-28T12:51:04.097Z,25.60
2018-08-28T12:53:32.093Z,25.50
2018-08-28T12:56:00.203Z,25.30
2018-08-28T12:58:28.317Z,24.30
2018-08-28T13:00:56.481Z,24.80
2018-08-28T13:03:24.917Z,24.90
2018-08-28T13:05:53.167Z,24.80
2018-08-28T13:08:21.413Z,24.90
2018-08-28T13:10:49.516Z,25.40
2018-08-28T13:13:17.617Z,25.20
2018-08-28T13:15:45.853Z,25.00
2018-08-28T13:18:14.029Z,25.30
2018-08-28T13:20:42.205Z,25.00
2018-08-28T13:23:10.273Z,25.20
2018-08-28T13:25:38.451Z,25.20
2018-08-28T13:28:06.419Z,25.50
2018-08-28T13:30:34.497Z,25.40
2018-08-28T13:33:02.581Z,25.50
2018-08-28T13:35:30.665Z,25.60
2018-08-28T13:37:58.304Z,25.80
2018-08-28T13:40:26.422Z,26.10
2018-08-28T13:42:54.462Z,25.90
2018-08-28T13:45:22.537Z,25.50
2018-08-28T13:47:50.625Z,25.30
2018-08-28T13:50:18.700Z,25.50
2018-08-28T13:52:46.773Z,25.40
2018-08-28T13:55:14.875Z,25.30
2018-08-28T13:57:43.386Z,25.30
2018-08-28T14:00:11.621Z,25.60
2018-08-28T14:02:39.560Z,25.80
2018-08-28T14:05:07.836Z,25.80
2018-08-28T14:07:35.937Z,26.00
2018-08-28T14:10:04.252Z,25.90
2018-08-28T14:12:32.352Z,25.50
2018-08-28T14:15:00.658Z,25.60
2018-08-28T14:17:28.603Z,25.60
2018-08-28T14:19:56.712Z,25.60
2018-08-28T14:22:24.995Z,25.60
2018-08-28T14:24:52.973Z,25.70
2018-08-28T14:27:21.077Z,25.70
2018-08-28T14:29:49.172Z,25.80
2018-08-28T14:32:17.453Z,25.90
2018-08-28T14:34:45.559Z,25.60
2018-08-28T14:37:13.673Z,25.50
2018-08-28T14:39:41.850Z,25.30
2018-08-28T14:42:09.928Z,25.30
2018-08-28T14:44:38.049Z,24.90
2018-08-28T14:47:06.492Z,24.90
2018-08-28T14:49:34.576Z,25.00
2018-08-28T14:52:03.017Z,24.80
2018-08-28T14:54:31.601Z,24.90
2018-08-28T14:56:59.689Z,24.80
2018-08-28T14:59:27.773Z,24.60
2018-08-28T15:01:55.861Z,24.80
2018-08-28T15:04:23.994Z,24.80
2018-08-28T15:06:52.167Z,24.80
2018-08-28T15:09:20.220Z,24.90
2018-08-28T15:11:48.294Z,24.90
2018-08-28T15:14:16.487Z,24.80
2018-08-28T15:16:44.794Z,24.80
2018-08-28T15:19:12.776Z,24.80
2018-08-28T15:21:40.877Z,24.80
2018-08-28T15:24:09.136Z,24.80
2018-08-28T15:26:37.255Z,24.70
2018-08-28T15:29:05.432Z,24.50
2018-08-28T15:31:33.515Z,24.50
2018-08-28T15:34:01.629Z,24.50
2018-08-28T15:36:29.444Z,24.50
2018-08-28T15:38:57.519Z,24.60
2018-08-28T15:41:25.604Z,24.60
2018-08-28T15:43:53.696Z,24.60
2018-08-28T15:46:21.789Z,24.60
2018-08-28T15:48:49.907Z,24.50
2018-08-28T15:51:18.118Z,24.50
2018-08-28T15:53:46.192Z,24.50
2018-08-28T15:56:14.324Z,24.50
2018-08-28T15:58:42.397Z,24.50
2018-08-28T16:01:10.515Z,24.50
2018-08-28T16:03:38.632Z,24.30
2018-08-28T16:06:06.744Z,24.30
2018-08-28T16:08:34.876Z,24.30
2018-08-28T16:11:02.972Z,24.30
2018-08-28T16:13:31.112Z,24.20
2018-08-28T16:15:59.825Z,24.20
2018-08-28T16:18:27.998Z,24.10
2018-08-28T16:20:56.065Z,24.10
2018-08-28T16:23:31.562Z,24.00
2018-08-28T16:25:59.848Z,23.90
2018-08-28T16:28:28.230Z,23.90
2018-08-28T16:30:56.206Z,23.80
2018-08-28T16:33:24.281Z,23.80
2018-08-28T16:35:52.622Z,23.80
2018-08-28T16:38:21.107Z,23.70
2018-08-28T16:40:49.193Z,23.70
2018-08-28T16:43:17.289Z,23.60
2018-08-28T16:45:45.396Z,23.60
2018-08-28T16:48:13.496Z,23.60
2018-08-28T16:50:41.574Z,23.60
2018-08-28T16:53:09.713Z,23.50
2018-08-28T16:55:37.857Z,23.50
2018-08-28T16:58:05.953Z,23.50
2018-08-28T17:00:34.296Z,23.40
2018-08-28T17:03:02.648Z,23.40
2018-08-28T17:05:30.764Z,23.40
2018-08-28T17:07:58.848Z,23.30
2018-08-28T17:10:27.036Z,23.30
2018-08-28T17:12:55.117Z,23.10
2018-08-28T17:15:23.244Z,23.00
2018-08-28T17:17:51.456Z,23.00
2018-08-28T17:20:19.537Z,23.00
2018-08-28T17:22:47.637Z,22.90
2018-08-28T17:25:15.772Z,22.80
2018-08-28T17:27:43.856Z,22.80
2018-08-28T17:30:11.953Z,22.70
2018-08-28T17:32:40.091Z,22.60
2018-08-28T17:35:08.267Z,22.60
2018-08-28T17:37:36.356Z,22.50
2018-08-28T17:40:04.003Z,22.40
2018-08-28T17:42:32.160Z,22.40
2018-08-28T17:45:00.237Z,22.30
2018-08-28T17:47:28.319Z,22.20
2018-08-28T17:49:56.493Z,22.20
2018-08-28T17:52:24.577Z,22.20
2018-08-28T17:54:52.655Z,22.10
2018-08-28T17:57:20.865Z,22.10
2018-08-28T17:59:48.915Z,22.00
2018-08-28T18:02:17.029Z,21.90
2018-08-28T18:04:45.140Z,21.90
2018-08-28T18:07:13.224Z,21.80
2018-08-28T18:09:41.320Z,21.70
2018-08-28T18:12:10.576Z,21.70
2018-08-28T18:14:38.776Z,21.60
2018-08-28T18:17:06.917Z,21.50
2018-08-28T18:19:35.401Z,21.40
2018-08-28T18:22:03.580Z,21.30
2018-08-28T18:24:31.640Z,21.30
2018-08-28T18:26:59.762Z,21.20
2018-08-28T18:29:27.880Z,21.00
2018-08-28T18:31:56.057Z,21.10
2018-08-28T18:34:24.308Z,21.00
2018-08-28T18:36:52.365Z,20.90
2018-08-28T18:39:20.083Z,20.80
2018-08-28T18:41:48.213Z,20.80
2018-08-28T18:44:16.349Z,20.60
2018-08-28T18:46:44.474Z,20.60
2018-08-28T18:49:12.591Z,20.50
2018-08-28T18:51:40.752Z,20.40
2018-08-28T18:54:08.862Z,20.20
2018-08-28T18:56:36.956Z,20.20
2018-08-28T18:59:05.072Z,20.10
2018-08-28T19:01:33.154Z,20.00
2018-08-28T19:04:01.241Z,19.90
2018-08-28T19:06:29.340Z,19.70
2018-08-28T19:08:57.515Z,19.60
2018-08-28T19:11:25.561Z,19.40
2018-08-28T19:13:53.707Z,19.30
2018-08-28T19:16:21.829Z,19.30
2018-08-28T19:18:49.930Z,19.30
2018-08-28T19:21:18.025Z,19.60
2018-08-28T19:23:46.100Z,19.80
2018-08-28T19:26:14.213Z,20.00
2018-08-28T19:28:42.403Z,20.00
2018-08-28T19:31:10.469Z,20.00
2018-08-28T19:33:38.687Z,20.00
2018-08-28T19:36:06.868Z,20.00
2018-08-28T19:38:34.532Z,20.00
2018-08-28T19:41:02.645Z,20.00
2018-08-28T19:43:30.845Z,19.90
2018-08-28T19:45:58.859Z,19.80
2018-08-28T19:48:26.932Z,20.00
2018-08-28T19:50:55.037Z,20.20
2018-08-28T19:53:23.129Z,20.40
2018-08-28T19:55:51.260Z,20.30
2018-08-28T19:58:19.496Z,20.30
2018-08-28T20:00:47.591Z,20.50
2018-08-28T20:03:15.684Z,20.30
2018-08-28T20:05:43.824Z,20.20
2018-08-28T20:08:11.905Z,20.10
2018-08-28T20:10:39.992Z,20.00
2018-08-28T20:13:08.084Z,20.00
2018-08-28T20:15:36.176Z,20.10
2018-08-28T20:18:04.316Z,20.20
2018-08-28T20:20:32.430Z,20.20
2018-08-28T20:23:00.505Z,20.20
2018-08-28T20:25:28.584Z,20.00
2018-08-28T20:27:56.689Z,20.30
2018-08-28T20:30:24.861Z,20.20
2018-08-28T20:32:52.960Z,20.20
2018-08-28T20:35:21.211Z,20.20
2018-08-28T20:37:49.285Z,20.20
2018-08-28T20:40:18.409Z,20.00
2018-08-28T20:42:46.506Z,20.00
2018-08-28T20:45:14.601Z,20.10
2018-08-28T20:47:42.801Z,20.00
2018-08-28T20:50:10.870Z,20.10
2018-08-28T20:52:39.042Z,20.00
2018-08-28T20:55:07.312Z,19.80
2018-08-28T20:57:35.450Z,19.70
2018-08-28T21:00:03.645Z,20.10
2018-08-28T21:02:32.661Z,19.90
2018-08-28T21:05:00.878Z,19.80
2018-08-28T21:07:29.012Z,19.70
2018-08-28T21:09:57.113Z,19.70
2018-08-28T21:12:25.504Z,19.40
2018-08-28T21:14:53.652Z,19.20
2018-08-28T21:17:21.812Z,19.10
2018-08-28T21:19:49.886Z,19.00
2018-08-28T21:22:18.016Z,18.80
2018-08-28T21:24:46.234Z,18.60
2018-08-28T21:27:14.335Z,18.40
2018-08-28T21:29:42.515Z,18.30
2018-08-28T21:32:10.828Z,18.30
2018-08-28T21:34:39.034Z,18.10
2018-08-28T21:37:07.343Z,18.00
2018-08-28T21:39:35.487Z,17.90
2018-08-28T21:42:03.206Z,17.80
2018-08-28T21:44:31.252Z,17.60
2018-08-28T21:46:59.395Z,17.70
2018-08-28T21:49:27.497Z,17.70
2018-08-28T21:51:55.604Z,17.60
2018-08-28T21:54:23.815Z,17.70
2018-08-28T21:56:51.920Z,17.70
2018-08-28T21:59:20.085Z,17.50
2018-08-28T22:01:48.181Z,17.40
2018-08-28T22:04:16.271Z,17.60
2018-08-28T22:06:49.979Z,17.70
2018-08-28T22:09:18.082Z,17.80
2018-08-28T22:11:46.233Z,17.90
2018-08-28T22:14:14.439Z,18.00
2018-08-28T22:16:42.516Z,18.30
2018-08-28T22:19:10.618Z,18.20
2018-08-28T22:21:38.695Z,18.10
2018-08-28T22:24:06.825Z,18.30
2018-08-28T22:26:34.997Z,18.30
2018-08-28T22:29:03.171Z,18.40
2018-08-28T22:31:31.268Z,18.50
2018-08-28T22:33:59.381Z,18.50
2018-08-28T22:36:28.330Z,18.60
2018-08-28T22:38:56.483Z,18.50
2018-08-28T22:41:24.593Z,18.60
2018-08-28T22:43:53.981Z,18.70
